Agana Heights, GU

9:36 AM ChST on December 23, 2014 (GMT +1000)
West Tinian | Change Station
CLOSE
Current Station
Airport
Location: Peipeinimaru,
Elevation: 269 ft
Nearby Weather Stations

Elev 269 ft 15.00 °N, 145.62 °E | Updated 46 minutes ago

Mostly Cloudy
Mostly Cloudy
82 °F
Feels Like 91 °F
N
20
Wind Variable Wind from ENE

Today
High -- | Low -- °F
--% Chance of Precip.
Yesterday
High -- | Low -- °F
Precip. -- in
6:39 AM 5:59 PM
New Moon, 1% visible
Pressure 29.96 in
Visibility 7.0 miles
Clouds Few 1800 ft
Scattered Clouds 3000 ft
Mostly Cloudy 10000 ft
Heat Index 91 °F
Dew Point 77 °F
Humidity 84%
Rainfall 0.00 in
Snow Depth Not available.
UV 2 out of 12
Pollen Not available.
Air Quality Not available.
Flu Activity Not available.
METAR PGWT 222250Z 07017KT 7SM FEW018 SCT030 BKN100 28/25 A2996

More Conditions Fewer Conditions

Pressure 29.96 in
Visibility 7.0 miles
Clouds Few 1800 ft
Scattered Clouds 3000 ft
Mostly Cloudy 10000 ft
Heat Index 91 °F
Dew Point 77 °F
Humidity 84%
Rainfall 0.00 in
Snow Depth Not available.
UV 2 out of 12
Pollen Not available.
Air Quality Not available.
Flu Activity Not available.
METAR PGWT 222250Z 07017KT 7SM FEW018 SCT030 BKN100 28/25 A2996

More Conditions Fewer Conditions

10-Day Weather Forecast

Almanac

Astronomy

Dec. 23, 2014 Rise Set
Actual Time
Civil Twilight
Nautical Twilight
Astronomical Twilight
Moon
Length of Visible Light
Length of Day
Tomorrow will be .
, % of the Moon is Illuminated

Today's Extremes

State Highs State Lows

Community

WunderPhotos

Upload Photos

1,779,715 photos uploaded!

WunderBlogs® & News

Nearby

Air Quality

  Air Quality AQ Index Pollutant
Not available.

Snow Depth

Station Depth Elevation

Earthquake Activity

City Distance Mag. Time & Date
Minimum magnitude displayed is 2.5.

Coastal Water Temperatures

Place Temperature

Nearby Weather Stations